createdAt,value
2023-11-16T00:00:11.553Z,90
2023-11-16T00:02:11.682Z,94
2023-11-16T00:04:12.480Z,90
2023-11-16T00:06:11.507Z,90
2023-11-16T00:08:11.349Z,90
2023-11-16T00:10:11.362Z,84
2023-11-16T00:12:11.884Z,84
2023-11-16T00:14:11.461Z,84
2023-11-16T00:16:11.417Z,84
2023-11-16T00:18:11.836Z,84
2023-11-16T00:20:11.371Z,84
2023-11-16T00:22:11.502Z,84
2023-11-16T00:24:11.502Z,84
2023-11-16T00:26:11.343Z,84
2023-11-16T00:28:11.379Z,84
2023-11-16T00:30:11.697Z,84
2023-11-16T00:32:11.352Z,84
2023-11-16T00:34:11.351Z,84
2023-11-16T00:36:11.591Z,84
2023-11-16T00:38:11.369Z,84
2023-11-16T00:40:11.356Z,84
2023-11-16T00:42:11.623Z,84
2023-11-16T00:44:11.333Z,84
2023-11-16T00:46:11.829Z,84
2023-11-16T00:48:11.824Z,84
2023-11-16T00:50:11.333Z,84
2023-11-16T00:52:11.362Z,84
2023-11-16T00:54:11.540Z,84
2023-11-16T00:56:11.336Z,84
2023-11-16T00:58:11.373Z,84
2023-11-16T01:00:11.640Z,84
2023-11-16T01:02:11.676Z,84
2023-11-16T01:04:11.654Z,84
2023-11-16T01:06:11.680Z,84
2023-11-16T01:08:11.495Z,94
2023-11-16T01:10:11.373Z,90
2023-11-16T01:12:11.679Z,90
2023-11-16T01:14:11.345Z,94
2023-11-16T01:16:11.667Z,94
2023-11-16T01:18:11.959Z,90
2023-11-16T01:20:11.393Z,90
2023-11-16T01:22:11.331Z,90
2023-11-16T01:24:11.649Z,90
2023-11-16T01:26:11.341Z,90
2023-11-16T01:28:11.666Z,90
2023-11-16T01:30:11.645Z,90
2023-11-16T01:32:11.323Z,90
2023-11-16T01:34:11.803Z,94
2023-11-16T01:36:11.821Z,90
2023-11-16T01:38:11.316Z,90
2023-11-16T01:40:11.350Z,90
2023-11-16T01:42:12.493Z,90
2023-11-16T01:44:11.345Z,90
2023-11-16T01:46:11.770Z,90
2023-11-16T01:48:11.682Z,90
2023-11-16T01:50:11.511Z,90
2023-11-16T01:52:11.333Z,90
2023-11-16T01:54:11.648Z,90
2023-11-16T01:56:11.369Z,90
2023-11-16T01:58:11.533Z,90
2023-11-16T02:00:11.574Z,90
2023-11-16T02:02:11.365Z,90
2023-11-16T02:04:12.410Z,90
2023-11-16T02:06:11.533Z,90
2023-11-16T02:08:12.643Z,90
2023-11-16T02:10:11.410Z,94
2023-11-16T02:12:11.463Z,90
2023-11-16T02:14:11.436Z,90
2023-11-16T02:16:11.775Z,90
2023-11-16T02:18:11.357Z,90
2023-11-16T02:20:11.333Z,90
2023-11-16T02:22:11.519Z,90
2023-11-16T02:24:11.689Z,90
2023-11-16T02:26:11.420Z,90
2023-11-16T02:28:11.464Z,94
2023-11-16T02:30:11.651Z,90
2023-11-16T02:32:11.725Z,82
2023-11-16T02:34:11.392Z,82
2023-11-16T02:36:11.460Z,82
2023-11-16T02:38:11.410Z,82
2023-11-16T02:40:11.455Z,80
2023-11-16T02:42:11.514Z,82
2023-11-16T02:44:11.391Z,82
2023-11-16T02:46:11.323Z,82
2023-11-16T02:48:11.970Z,82
2023-11-16T02:50:11.334Z,82
2023-11-16T02:52:11.350Z,82
2023-11-16T02:54:11.703Z,82
2023-11-16T02:56:11.332Z,82
2023-11-16T02:58:11.506Z,82
2023-11-16T03:00:11.983Z,84
2023-11-16T03:02:11.407Z,82
2023-11-16T03:04:11.978Z,82
2023-11-16T03:06:11.557Z,82
2023-11-16T03:08:11.339Z,82
2023-11-16T03:10:11.400Z,82
2023-11-16T03:12:11.384Z,82
2023-11-16T03:14:11.303Z,82
2023-11-16T03:16:11.582Z,82
2023-11-16T03:18:11.940Z,82
2023-11-16T03:20:11.339Z,82
2023-11-16T03:22:11.424Z,82
2023-11-16T03:24:11.618Z,82
2023-11-16T03:26:11.813Z,82
2023-11-16T03:28:11.326Z,82
2023-11-16T03:30:11.712Z,82
2023-11-16T03:32:11.357Z,82
2023-11-16T03:34:11.313Z,82
2023-11-16T03:36:11.574Z,82
2023-11-16T03:38:11.325Z,82
2023-11-16T03:40:11.295Z,82
2023-11-16T03:42:11.666Z,82
2023-11-16T03:44:11.333Z,82
2023-11-16T03:46:11.636Z,82
2023-11-16T03:48:11.995Z,84
2023-11-16T03:50:11.325Z,82
2023-11-16T03:52:11.348Z,82
2023-11-16T03:54:11.471Z,82
2023-11-16T03:56:11.318Z,82
2023-11-16T03:58:11.506Z,82
2023-11-16T04:00:11.609Z,82
2023-11-16T04:02:11.315Z,82
2023-11-16T04:04:11.835Z,82
2023-11-16T04:06:11.453Z,82
2023-11-16T04:08:11.312Z,82
2023-11-16T04:10:11.287Z,82
2023-11-16T04:12:11.598Z,82
2023-11-16T04:14:11.411Z,82
2023-11-16T04:16:11.272Z,82
2023-11-16T04:18:11.833Z,80
2023-11-16T04:20:11.368Z,80
2023-11-16T04:22:11.301Z,80
2023-11-16T04:24:11.681Z,82
2023-11-16T04:26:11.303Z,82
2023-11-16T04:28:11.269Z,82
2023-11-16T04:30:11.511Z,82
2023-11-16T04:32:11.280Z,82
2023-11-16T04:34:11.301Z,82
2023-11-16T04:36:11.501Z,82
2023-11-16T04:38:11.294Z,82
2023-11-16T04:40:11.371Z,82
2023-11-16T04:42:11.455Z,82
2023-11-16T04:44:11.366Z,82
2023-11-16T04:46:11.362Z,82
2023-11-16T04:48:11.977Z,82
2023-11-16T04:50:11.301Z,82
2023-11-16T04:52:11.332Z,82
2023-11-16T04:54:11.633Z,82
2023-11-16T04:56:11.295Z,82
2023-11-16T04:58:11.814Z,82
2023-11-16T05:00:11.551Z,82
2023-11-16T05:02:11.399Z,82
2023-11-16T05:04:11.907Z,82
2023-11-16T05:06:11.357Z,82
2023-11-16T05:08:11.310Z,82
2023-11-16T05:10:11.291Z,82
2023-11-16T05:12:11.532Z,82
2023-11-16T05:14:11.429Z,82
2023-11-16T05:16:11.771Z,82
2023-11-16T05:18:12.118Z,82
2023-11-16T05:20:11.293Z,82
2023-11-16T05:22:11.284Z,82
2023-11-16T05:24:11.604Z,82
2023-11-16T05:26:11.271Z,82
2023-11-16T05:28:11.292Z,82
2023-11-16T05:30:11.440Z,82
2023-11-16T05:32:11.295Z,82
2023-11-16T05:34:11.369Z,82
2023-11-16T05:36:11.580Z,82
2023-11-16T05:38:11.281Z,82
2023-11-16T05:40:11.577Z,82
2023-11-16T05:42:11.511Z,82
2023-11-16T05:44:11.286Z,82
2023-11-16T05:46:11.767Z,82
2023-11-16T05:48:11.562Z,82
2023-11-16T05:50:11.499Z,82
2023-11-16T05:52:11.287Z,82
2023-11-16T05:54:11.914Z,82
2023-11-16T05:56:11.411Z,82
2023-11-16T05:58:11.285Z,84
2023-11-16T06:00:11.539Z,82
2023-11-16T06:02:11.272Z,84
2023-11-16T06:04:11.877Z,82
2023-11-16T06:06:11.647Z,82
2023-11-16T06:08:11.256Z,82
2023-11-16T06:10:11.269Z,82
2023-11-16T06:12:11.551Z,82
2023-11-16T06:14:11.334Z,82
2023-11-16T06:16:11.395Z,82
2023-11-16T06:18:11.920Z,82
2023-11-16T06:20:11.382Z,82
2023-11-16T06:22:11.400Z,82
2023-11-16T06:24:11.634Z,82
2023-11-16T06:26:11.279Z,82
2023-11-16T06:28:11.314Z,82
2023-11-16T06:30:11.615Z,82
2023-11-16T06:32:11.270Z,82
2023-11-16T06:34:16.273Z,82
2023-11-16T06:36:11.519Z,82
2023-11-16T06:38:11.406Z,82
2023-11-16T06:40:11.574Z,82
2023-11-16T06:42:11.559Z,82
2023-11-16T06:44:11.460Z,84
2023-11-16T06:46:11.560Z,82
2023-11-16T06:48:12.172Z,82
2023-11-16T06:50:11.314Z,82
2023-11-16T06:52:11.263Z,82
2023-11-16T06:54:11.640Z,82
2023-11-16T06:56:11.261Z,82
2023-11-16T06:58:11.343Z,82
2023-11-16T07:00:11.493Z,82
2023-11-16T07:02:11.249Z,82
2023-11-16T07:04:11.950Z,82
2023-11-16T07:06:11.563Z,82
2023-11-16T07:08:11.283Z,82
2023-11-16T07:10:11.386Z,82
2023-11-16T07:12:11.961Z,82
2023-11-16T07:14:11.279Z,82
2023-11-16T07:16:11.389Z,82
2023-11-16T07:18:12.013Z,82
2023-11-16T07:20:11.254Z,82
2023-11-16T07:22:11.391Z,82
2023-11-16T07:24:11.246Z,82
2023-11-16T07:26:11.437Z,82
2023-11-16T07:28:11.266Z,82
2023-11-16T07:30:11.339Z,82
2023-11-16T07:32:11.300Z,82
2023-11-16T07:34:11.261Z,82
2023-11-16T07:36:11.600Z,82
2023-11-16T07:38:11.269Z,82
2023-11-16T07:40:11.249Z,82
2023-11-16T07:42:11.960Z,82
2023-11-16T07:44:11.281Z,82
2023-11-16T07:46:11.269Z,84
2023-11-16T07:48:11.746Z,82
2023-11-16T07:50:11.242Z,82
2023-11-16T07:52:11.225Z,82
2023-11-16T07:54:11.242Z,82
2023-11-16T07:56:11.232Z,84
2023-11-16T07:58:11.318Z,82
2023-11-16T08:00:11.412Z,82
2023-11-16T08:02:11.230Z,82
2023-11-16T08:04:12.480Z,82
2023-11-16T08:06:11.257Z,84
2023-11-16T08:08:11.516Z,82
2023-11-16T08:10:11.431Z,82
2023-11-16T08:12:11.255Z,82
2023-11-16T08:14:11.474Z,82
2023-11-16T08:16:11.699Z,82
2023-11-16T08:18:11.717Z,82
2023-11-16T08:20:11.384Z,82
2023-11-16T08:22:11.242Z,82
2023-11-16T08:24:11.242Z,82
2023-11-16T08:26:11.903Z,84
2023-11-16T08:28:11.350Z,82
2023-11-16T08:30:11.381Z,80
2023-11-16T08:32:14.364Z,80
2023-11-16T08:34:11.259Z,80
2023-11-16T08:36:11.293Z,80
2023-11-16T08:38:11.224Z,80
2023-11-16T08:40:11.266Z,80
2023-11-16T08:42:11.659Z,80
2023-11-16T08:44:11.218Z,80
2023-11-16T08:46:12.476Z,80
2023-11-16T08:48:11.804Z,80
2023-11-16T08:50:11.255Z,80
2023-11-16T08:52:11.242Z,80
2023-11-16T08:54:11.229Z,80
2023-11-16T08:56:11.236Z,80
2023-11-16T08:58:11.229Z,80
2023-11-16T09:00:11.323Z,80
2023-11-16T09:02:16.036Z,80
2023-11-16T09:04:11.834Z,80
2023-11-16T09:06:11.221Z,78
2023-11-16T09:08:11.966Z,78
2023-11-16T09:10:11.544Z,78
2023-11-16T09:12:11.246Z,78
2023-11-16T09:14:11.528Z,78
2023-11-16T09:16:11.220Z,78
2023-11-16T09:18:12.390Z,78
2023-11-16T09:20:11.322Z,78
2023-11-16T09:22:11.516Z,78
2023-11-16T09:24:11.249Z,78
2023-11-16T09:26:11.225Z,80
2023-11-16T09:28:11.226Z,80
2023-11-16T09:30:11.506Z,80
2023-11-16T09:32:11.239Z,78
2023-11-16T09:34:11.330Z,78
2023-11-16T09:36:11.250Z,78
2023-11-16T09:38:11.262Z,78
2023-11-16T09:40:11.344Z,78
2023-11-16T09:42:11.219Z,78
2023-11-16T09:44:11.212Z,78
2023-11-16T09:46:11.744Z,78
2023-11-16T09:48:12.002Z,78
2023-11-16T09:50:11.447Z,80
2023-11-16T09:52:11.222Z,80
2023-11-16T09:54:11.330Z,80
2023-11-16T09:56:11.238Z,80
2023-11-16T09:58:11.734Z,80
2023-11-16T10:00:11.221Z,80
2023-11-16T10:02:12.019Z,80
2023-11-16T10:04:11.937Z,80
2023-11-16T10:06:11.445Z,80
2023-11-16T10:08:11.208Z,80
2023-11-16T10:10:11.221Z,80
2023-11-16T10:12:11.366Z,80
2023-11-16T10:14:11.230Z,80
2023-11-16T10:16:12.352Z,80
2023-11-16T10:18:11.955Z,80
2023-11-16T10:20:11.244Z,80
2023-11-16T10:22:11.376Z,80
2023-11-16T10:24:11.373Z,80
2023-11-16T10:26:11.222Z,80
2023-11-16T10:28:11.282Z,80
2023-11-16T10:30:11.215Z,80
2023-11-16T10:32:11.909Z,80
2023-11-16T10:34:11.215Z,80
2023-11-16T10:36:11.321Z,78
2023-11-16T10:38:11.392Z,80
2023-11-16T10:40:11.211Z,80
2023-11-16T10:42:11.219Z,80
2023-11-16T10:44:11.243Z,80
2023-11-16T10:46:11.977Z,80
2023-11-16T10:48:11.537Z,80
2023-11-16T10:50:11.206Z,80
2023-11-16T10:52:11.207Z,80
2023-11-16T10:54:11.850Z,86
2023-11-16T10:56:11.580Z,80
2023-11-16T10:58:11.243Z,78
2023-11-16T11:00:11.238Z,78
2023-11-16T11:02:11.509Z,80
2023-11-16T11:04:13.825Z,80
2023-11-16T11:06:11.184Z,78
2023-11-16T11:08:11.248Z,78
2023-11-16T11:10:11.300Z,80
2023-11-16T11:12:11.224Z,80
2023-11-16T11:14:11.221Z,80
2023-11-16T11:16:11.623Z,80
2023-11-16T11:18:11.953Z,80
2023-11-16T11:20:11.400Z,80
2023-11-16T11:22:11.204Z,80
2023-11-16T11:24:11.214Z,82
2023-11-16T11:26:11.393Z,82
2023-11-16T11:28:11.197Z,82
2023-11-16T11:30:11.406Z,82
2023-11-16T11:32:11.204Z,82
2023-11-16T11:34:11.640Z,82
2023-11-16T11:36:11.489Z,82
2023-11-16T11:38:11.197Z,82
2023-11-16T11:40:11.244Z,80
2023-11-16T11:42:11.321Z,82
2023-11-16T11:44:11.551Z,82
2023-11-16T11:46:11.745Z,82
2023-11-16T11:48:11.419Z,80
2023-11-16T11:50:11.812Z,80
2023-11-16T11:52:11.526Z,80
2023-11-16T11:54:11.230Z,80
2023-11-16T11:56:11.499Z,80
2023-11-16T11:58:11.551Z,80
2023-11-16T12:00:11.201Z,80
2023-11-16T12:02:11.178Z,80
2023-11-16T12:04:22.865Z,80
2023-11-16T12:06:11.916Z,80
2023-11-16T12:08:11.193Z,80
2023-11-16T12:10:11.194Z,80
2023-11-16T12:12:11.418Z,80
2023-11-16T12:14:11.428Z,82
2023-11-16T12:16:11.972Z,80
2023-11-16T12:18:13.912Z,80
2023-11-16T12:20:11.243Z,80
2023-11-16T12:22:11.188Z,80
2023-11-16T12:24:11.214Z,84
2023-11-16T12:26:11.611Z,80
2023-11-16T12:28:11.192Z,80
2023-11-16T12:30:11.345Z,80
2023-11-16T12:32:11.222Z,80
2023-11-16T12:34:11.172Z,80
2023-11-16T12:36:12.693Z,78
2023-11-16T12:38:11.196Z,80
2023-11-16T12:40:11.184Z,80
2023-11-16T12:42:11.246Z,80
2023-11-16T12:44:11.210Z,80
2023-11-16T12:46:11.820Z,80
2023-11-16T12:48:11.492Z,80
2023-11-16T12:50:11.201Z,80
2023-11-16T12:52:11.265Z,80
2023-11-16T12:54:11.214Z,80
2023-11-16T12:56:11.318Z,80
2023-11-16T12:58:11.301Z,80
2023-11-16T13:00:11.185Z,80
2023-11-16T13:02:11.248Z,80
2023-11-16T13:04:11.813Z,80
2023-11-16T13:06:11.226Z,80
2023-11-16T13:08:11.205Z,80
2023-11-16T13:10:11.884Z,80
2023-11-16T13:12:23.795Z,80
2023-11-16T13:14:11.202Z,80
2023-11-16T13:16:12.155Z,80
2023-11-16T13:18:11.479Z,80
2023-11-16T13:20:11.215Z,82
2023-11-16T13:22:11.181Z,80
2023-11-16T13:24:11.383Z,80
2023-11-16T13:26:11.610Z,80
2023-11-16T13:28:11.531Z,80
2023-11-16T13:30:11.188Z,82
2023-11-16T13:32:11.343Z,80
2023-11-16T13:34:11.726Z,82
2023-11-16T13:36:11.178Z,82
2023-11-16T13:38:11.158Z,82
2023-11-16T13:40:11.891Z,82
2023-11-16T13:42:11.172Z,82
2023-11-16T13:44:11.176Z,82
2023-11-16T13:46:11.998Z,82
2023-11-16T13:48:11.569Z,82
2023-11-16T13:50:11.284Z,82
2023-11-16T13:52:11.181Z,82
2023-11-16T13:54:11.181Z,82
2023-11-16T13:56:11.442Z,84
2023-11-16T13:58:11.180Z,84
2023-11-16T14:00:11.341Z,86
2023-11-16T14:02:11.504Z,84
2023-11-16T14:04:11.606Z,84
2023-11-16T14:06:11.644Z,84
2023-11-16T14:08:11.140Z,82
2023-11-16T14:10:26.100Z,82
2023-11-16T14:12:11.308Z,82
2023-11-16T14:14:11.215Z,84
2023-11-16T14:16:11.752Z,82
2023-11-16T14:18:11.542Z,82
2023-11-16T14:20:11.160Z,82
2023-11-16T14:22:11.303Z,82
2023-11-16T14:24:32.142Z,82
2023-11-16T14:26:11.213Z,82
2023-11-16T14:28:11.425Z,82
2023-11-16T14:30:11.190Z,82
2023-11-16T14:32:11.167Z,82
2023-11-16T14:34:11.458Z,88
2023-11-16T14:36:11.161Z,88
2023-11-16T14:38:11.332Z,90
2023-11-16T14:40:11.272Z,90
2023-11-16T14:42:11.138Z,88
2023-11-16T14:44:11.295Z,86
2023-11-16T14:46:11.953Z,86
2023-11-16T14:48:11.338Z,86
2023-11-16T14:50:11.349Z,90
2023-11-16T14:52:11.169Z,94
2023-11-16T14:54:11.512Z,90
2023-11-16T14:56:11.128Z,90
2023-11-16T14:58:11.419Z,90
2023-11-16T15:00:11.342Z,90
2023-11-16T15:02:11.170Z,90
2023-11-16T15:04:11.705Z,90
2023-11-16T15:06:11.160Z,86
2023-11-16T15:08:11.131Z,86
2023-11-16T15:10:11.839Z,86
2023-11-16T15:12:11.125Z,88
2023-11-16T15:14:11.204Z,88
2023-11-16T15:16:11.767Z,90
2023-11-16T15:18:11.550Z,92
2023-11-16T15:20:28.767Z,88
2023-11-16T15:22:11.151Z,92
2023-11-16T15:24:11.199Z,92
2023-11-16T15:26:21.185Z,90
2023-11-16T15:28:11.409Z,88
2023-11-16T15:30:11.168Z,92
2023-11-16T15:32:11.152Z,92
2023-11-16T15:34:11.481Z,92
2023-11-16T15:36:11.451Z,90
2023-11-16T15:38:11.126Z,92
2023-11-16T15:40:11.500Z,92
2023-11-16T15:42:11.202Z,88
2023-11-16T15:44:11.139Z,90
2023-11-16T15:46:11.479Z,92
2023-11-16T15:48:11.607Z,88
2023-11-16T15:50:13.887Z,90
2023-11-16T15:52:11.317Z,88
2023-11-16T15:54:11.290Z,92
2023-11-16T15:56:11.121Z,88
2023-11-16T15:58:11.513Z,88
2023-11-16T16:00:11.233Z,88
2023-11-16T16:02:11.504Z,88
2023-11-16T16:04:11.869Z,88
2023-11-16T16:06:11.133Z,88
2023-11-16T16:08:11.143Z,88
2023-11-16T16:10:11.397Z,88
2023-11-16T16:12:11.147Z,88
2023-11-16T16:14:11.187Z,90
2023-11-16T16:16:11.480Z,88
2023-11-16T16:18:11.579Z,88
2023-11-16T16:20:11.139Z,88
2023-11-16T16:22:11.602Z,92
2023-11-16T16:24:11.136Z,88
2023-11-16T16:26:11.120Z,88
2023-11-16T16:28:11.391Z,92
2023-11-16T16:30:11.247Z,90
2023-11-16T16:32:11.165Z,86
2023-11-16T16:34:11.601Z,88
2023-11-16T16:36:11.281Z,88
2023-11-16T16:38:11.134Z,88
2023-11-16T16:40:11.735Z,90
2023-11-16T16:42:11.195Z,90
2023-11-16T16:44:11.342Z,84
2023-11-16T16:46:11.919Z,84
2023-11-16T16:48:11.362Z,84
2023-11-16T16:50:11.127Z,92
2023-11-16T16:52:11.429Z,92
2023-11-16T16:54:11.194Z,86
2023-11-16T16:56:11.120Z,86
2023-11-16T16:58:11.432Z,84
2023-11-16T17:00:11.495Z,84
2023-11-16T17:02:11.376Z,86
2023-11-16T17:04:11.898Z,84
2023-11-16T17:06:11.134Z,84
2023-11-16T17:08:11.388Z,88
2023-11-16T17:10:12.039Z,90
2023-11-16T17:12:11.155Z,92
2023-11-16T17:14:11.136Z,86
2023-11-16T17:16:11.440Z,92
2023-11-16T17:18:11.907Z,90
2023-11-16T17:20:11.097Z,90
2023-11-16T17:22:11.456Z,86
2023-11-16T17:24:11.123Z,86
2023-11-16T17:26:11.121Z,86
2023-11-16T17:28:11.844Z,88
2023-11-16T17:30:11.099Z,86
2023-11-16T17:32:11.104Z,86
2023-11-16T17:34:11.943Z,86
2023-11-16T17:36:11.148Z,86
2023-11-16T17:38:11.197Z,90
2023-11-16T17:40:11.627Z,92
2023-11-16T17:42:11.098Z,86
2023-11-16T17:44:11.127Z,86
2023-11-16T17:46:11.743Z,86
2023-11-16T17:48:11.704Z,86
2023-11-16T17:50:11.298Z,86
2023-11-16T17:52:11.630Z,86
2023-11-16T17:54:11.097Z,88
2023-11-16T17:56:11.230Z,90
2023-11-16T17:58:11.563Z,84
2023-11-16T18:00:11.084Z,84
2023-11-16T18:02:11.102Z,84
2023-11-16T18:04:11.641Z,84
2023-11-16T18:06:11.230Z,84
2023-11-16T18:08:11.102Z,84
2023-11-16T18:10:11.913Z,84
2023-11-16T18:12:11.221Z,84
2023-11-16T18:14:11.106Z,84
2023-11-16T18:16:11.685Z,84
2023-11-16T18:18:11.390Z,84
2023-11-16T18:20:11.115Z,84
2023-11-16T18:22:11.462Z,84
2023-11-16T18:24:11.117Z,84
2023-11-16T18:26:11.092Z,84
2023-11-16T18:28:11.346Z,86
2023-11-16T18:30:11.105Z,86
2023-11-16T18:32:11.323Z,86
2023-11-16T18:34:11.380Z,84
2023-11-16T18:36:11.120Z,84
2023-11-16T18:38:11.328Z,84
2023-11-16T18:40:11.770Z,84
2023-11-16T18:42:11.119Z,84
2023-11-16T18:44:11.112Z,84
2023-11-16T18:46:11.698Z,84
2023-11-16T18:48:12.175Z,84
2023-11-16T18:50:11.111Z,84
2023-11-16T18:52:11.478Z,84
2023-11-16T18:54:11.191Z,86
2023-11-16T18:56:11.272Z,84
2023-11-16T18:58:11.600Z,84
2023-11-16T19:00:11.523Z,84
2023-11-16T19:02:11.650Z,84
2023-11-16T19:04:11.729Z,84
2023-11-16T19:06:11.294Z,84
2023-11-16T19:08:11.154Z,84
2023-11-16T19:10:11.474Z,84
2023-11-16T19:12:11.257Z,84
2023-11-16T19:14:11.071Z,84
2023-11-16T19:16:11.391Z,84
2023-11-16T19:18:11.801Z,84
2023-11-16T19:20:11.101Z,84
2023-11-16T19:22:11.431Z,84
2023-11-16T19:24:11.374Z,84
2023-11-16T19:26:11.258Z,84
2023-11-16T19:28:11.386Z,84
2023-11-16T19:30:11.078Z,84
2023-11-16T19:32:11.089Z,86
2023-11-16T19:34:11.330Z,84
2023-11-16T19:36:11.087Z,84
2023-11-16T19:38:16.043Z,84
2023-11-16T19:40:11.351Z,86
2023-11-16T19:42:11.129Z,86
2023-11-16T19:44:11.072Z,84
2023-11-16T19:46:11.510Z,84
2023-11-16T19:48:11.814Z,84
2023-11-16T19:50:11.075Z,84
2023-11-16T19:52:11.368Z,84
2023-11-16T19:54:11.077Z,84
2023-11-16T19:56:11.058Z,84
2023-11-16T19:58:12.320Z,84
2023-11-16T20:00:11.083Z,84
2023-11-16T20:02:12.316Z,84
2023-11-16T20:04:11.752Z,84
2023-11-16T20:06:11.063Z,84
2023-11-16T20:08:11.073Z,84
2023-11-16T20:10:11.393Z,84
2023-11-16T20:12:11.129Z,84
2023-11-16T20:14:11.195Z,84
2023-11-16T20:16:11.403Z,84
2023-11-16T20:18:12.668Z,84
2023-11-16T20:20:11.089Z,84
2023-11-16T20:22:11.551Z,84
2023-11-16T20:24:11.077Z,84
2023-11-16T20:26:11.072Z,84
2023-11-16T20:28:11.369Z,84
2023-11-16T20:30:11.446Z,84
2023-11-16T20:32:11.061Z,84
2023-11-16T20:34:11.647Z,116
2023-11-16T20:36:11.089Z,114
2023-11-16T20:38:11.137Z,114
2023-11-16T20:40:11.565Z,104
2023-11-16T20:42:11.068Z,114
2023-11-16T20:44:11.176Z,114
2023-11-16T20:46:11.443Z,114
2023-11-16T20:48:11.410Z,90
2023-11-16T20:50:11.081Z,92
2023-11-16T20:52:11.537Z,92
2023-11-16T20:54:11.071Z,88
2023-11-16T20:56:11.069Z,88
2023-11-16T20:58:11.309Z,92
2023-11-16T21:00:11.177Z,88
2023-11-16T21:02:11.175Z,78
2023-11-16T21:04:12.084Z,78
2023-11-16T21:06:11.038Z,78
2023-11-16T21:08:11.077Z,78
2023-11-16T21:10:11.315Z,78
2023-11-16T21:12:11.048Z,78
2023-11-16T21:14:11.060Z,78
2023-11-16T21:16:11.670Z,78
2023-11-16T21:18:11.412Z,78
2023-11-16T21:20:11.070Z,80
2023-11-16T21:22:11.383Z,78
2023-11-16T21:24:11.107Z,78
2023-11-16T21:26:11.073Z,78
2023-11-16T21:28:11.957Z,78
2023-11-16T21:30:11.841Z,78
2023-11-16T21:32:11.820Z,78
2023-11-16T21:34:11.361Z,78
2023-11-16T21:36:11.047Z,78
2023-11-16T21:38:11.047Z,78
2023-11-16T21:40:11.590Z,78
2023-11-16T21:42:11.109Z,78
2023-11-16T21:44:11.034Z,78
2023-11-16T21:46:11.568Z,78
2023-11-16T21:48:11.352Z,76
2023-11-16T21:50:11.173Z,78
2023-11-16T21:52:11.381Z,78
2023-11-16T21:54:11.028Z,78
2023-11-16T21:56:11.069Z,78
2023-11-16T21:58:11.352Z,78
2023-11-16T22:00:11.436Z,78
2023-11-16T22:02:11.362Z,78
2023-11-16T22:04:11.282Z,78
2023-11-16T22:06:11.116Z,78
2023-11-16T22:08:11.063Z,78
2023-11-16T22:10:11.192Z,78
2023-11-16T22:12:11.110Z,78
2023-11-16T22:14:11.821Z,78
2023-11-16T22:16:11.320Z,78
2023-11-16T22:18:11.584Z,78
2023-11-16T22:20:11.042Z,78
2023-11-16T22:22:11.387Z,78
2023-11-16T22:24:11.185Z,78
2023-11-16T22:26:11.020Z,78
2023-11-16T22:28:11.323Z,78
2023-11-16T22:30:11.071Z,78
2023-11-16T22:32:11.285Z,78
2023-11-16T22:34:11.453Z,78
2023-11-16T22:36:11.027Z,76
2023-11-16T22:38:11.115Z,78
2023-11-16T22:40:11.731Z,78
2023-11-16T22:42:11.038Z,78
2023-11-16T22:44:11.314Z,78
2023-11-16T22:46:12.263Z,78
2023-11-16T22:48:11.434Z,78
2023-11-16T22:50:11.085Z,78
2023-11-16T22:52:11.325Z,78
2023-11-16T22:54:11.111Z,78
2023-11-16T22:56:11.091Z,78
2023-11-16T22:58:11.968Z,78
2023-11-16T23:00:11.250Z,78
2023-11-16T23:02:11.030Z,78
2023-11-16T23:04:12.082Z,78
2023-11-16T23:06:11.052Z,78
2023-11-16T23:08:11.043Z,78
2023-11-16T23:10:11.797Z,78
2023-11-16T23:12:11.024Z,78
2023-11-16T23:14:11.004Z,78
2023-11-16T23:16:11.726Z,78
2023-11-16T23:18:11.582Z,78
2023-11-16T23:20:11.019Z,78
2023-11-16T23:22:11.724Z,78
2023-11-16T23:24:11.019Z,78
2023-11-16T23:26:11.107Z,78
2023-11-16T23:28:11.786Z,78
2023-11-16T23:30:11.033Z,78
2023-11-16T23:32:11.258Z,78
2023-11-16T23:34:11.293Z,78
2023-11-16T23:36:11.044Z,78
2023-11-16T23:38:11.032Z,78
2023-11-16T23:40:11.877Z,78
2023-11-16T23:42:11.237Z,78
2023-11-16T23:44:11.124Z,78
2023-11-16T23:46:11.656Z,78
2023-11-16T23:48:11.377Z,78
2023-11-16T23:50:11.692Z,78
2023-11-16T23:52:11.212Z,78
2023-11-16T23:54:11.020Z,78
2023-11-16T23:56:11.019Z,78
2023-11-16T23:58:11.486Z,78
